GEC8443 LTFM-EDDF
Flight info
| Callsign | GEC8443 |
|---|---|
| Flight time | 2h 25m |
| Altitude | 36000 |
| Route | VADEN1D/35L VADEN N618 BAKLO DCT XANEX DCT UTEKA DCT BABIT DCT GOTAR DCT ABRUK DCT SIMBA DCT AKINI T161 DEBHI DEBHI1B |
| Aircraft | B77L/H-SDE1E2E3FGHIJ2J3J4J5M1RWXY/LB1D1 |
Departure
| Time | 2026-05-07 15:29 |
|---|---|
| Airport | İstanbul Airport (LTFM) |
Arrival
| Time | 2026-05-07 17:55 |
|---|---|
| Airport | Frankfurt Main Airport (EDDF) |
| Time | Latitude | Longitude | Altitude | Speed | Heading |
|---|---|---|---|---|---|
| 2026-05-07 15:05 | 41.27696 | 28.71352 | 338 ft | 0 kts | 88° |
| 2026-05-07 15:20 | 41.27696 | 28.71333 | 335 ft | 2 kts | 89° |
| 2026-05-07 15:20 | 41.27696 | 28.71311 | 335 ft | 2 kts | 90° |
| 2026-05-07 15:21 | 41.27696 | 28.71289 | 333 ft | 2 kts | 91° |
| 2026-05-07 15:21 | 41.27697 | 28.71267 | 334 ft | 2 kts | 94° |
| 2026-05-07 15:21 | 41.27698 | 28.71245 | 333 ft | 2 kts | 97° |
| 2026-05-07 15:21 | 41.27701 | 28.71224 | 333 ft | 2 kts | 104° |
| 2026-05-07 15:22 | 41.27706 | 28.71203 | 333 ft | 2 kts | 123° |
| 2026-05-07 15:22 | 41.27718 | 28.71189 | 333 ft | 2 kts | 168° |
| 2026-05-07 15:22 | 41.27726 | 28.71187 | 333 ft | 0 kts | 178° |
| 2026-05-07 15:25 | 41.27712 | 28.71188 | 338 ft | 6 kts | 178° |
| 2026-05-07 15:25 | 41.27631 | 28.71192 | 333 ft | 17 kts | 179° |
| 2026-05-07 15:25 | 41.27480 | 28.71194 | 336 ft | 25 kts | 179° |
| 2026-05-07 15:25 | 41.27304 | 28.71197 | 336 ft | 26 kts | 179° |
| 2026-05-07 15:26 | 41.27115 | 28.71202 | 336 ft | 27 kts | 179° |
| 2026-05-07 15:26 | 41.26925 | 28.71206 | 333 ft | 28 kts | 179° |
| 2026-05-07 15:26 | 41.26741 | 28.71210 | 336 ft | 20 kts | 176° |
| 2026-05-07 15:26 | 41.26693 | 28.71287 | 334 ft | 12 kts | 93° |
| 2026-05-07 15:27 | 41.26697 | 28.71416 | 335 ft | 16 kts | 89° |
| 2026-05-07 15:27 | 41.26699 | 28.71587 | 334 ft | 21 kts | 89° |
| 2026-05-07 15:27 | 41.26702 | 28.71805 | 335 ft | 26 kts | 89° |
| 2026-05-07 15:27 | 41.26706 | 28.72069 | 338 ft | 31 kts | 89° |
| 2026-05-07 15:28 | 41.26708 | 28.72372 | 337 ft | 35 kts | 89° |
| 2026-05-07 15:28 | 41.26771 | 28.72518 | 336 ft | 16 kts | 5° |
| 2026-05-07 15:28 | 41.26918 | 28.72509 | 336 ft | 33 kts | 359° |
| 2026-05-07 15:28 | 41.27378 | 28.72499 | 336 ft | 102 kts | 359° |
| 2026-05-07 15:29 | 41.28300 | 28.72478 | 337 ft | 161 kts | 358° |
| 2026-05-07 15:29 | 41.29492 | 28.72415 | 734 ft | 172 kts | 360° |
| 2026-05-07 15:29 | 41.30711 | 28.72400 | 1303 ft | 181 kts | 1° |
| 2026-05-07 15:29 | 41.32022 | 28.72445 | 1768 ft | 195 kts | 0° |
| 2026-05-07 15:30 | 41.33365 | 28.72503 | 2506 ft | 192 kts | 359° |
| 2026-05-07 15:30 | 41.34727 | 28.72317 | 2778 ft | 209 kts | 333° |
| 2026-05-07 15:30 | 41.35790 | 28.70967 | 3085 ft | 222 kts | 300° |
| 2026-05-07 15:30 | 41.36576 | 28.69066 | 3394 ft | 245 kts | 297° |
| 2026-05-07 15:31 | 41.37406 | 28.67047 | 4123 ft | 252 kts | 298° |
| 2026-05-07 15:31 | 41.38326 | 28.65000 | 4895 ft | 258 kts | 301° |
| 2026-05-07 15:31 | 41.39269 | 28.62984 | 5851 ft | 257 kts | 301° |
| 2026-05-07 15:31 | 41.40238 | 28.60948 | 6594 ft | 263 kts | 302° |
| 2026-05-07 15:32 | 41.41235 | 28.58873 | 7371 ft | 267 kts | 302° |
| 2026-05-07 15:32 | 41.42242 | 28.56784 | 8171 ft | 270 kts | 302° |
| 2026-05-07 15:32 | 41.43266 | 28.54666 | 8980 ft | 273 kts | 302° |
| 2026-05-07 15:32 | 41.44302 | 28.52528 | 9788 ft | 276 kts | 303° |
| 2026-05-07 15:33 | 41.45353 | 28.50356 | 10425 ft | 285 kts | 303° |
| 2026-05-07 15:33 | 41.46458 | 28.48077 | 10646 ft | 310 kts | 303° |
| 2026-05-07 15:33 | 41.47677 | 28.45562 | 10848 ft | 335 kts | 303° |
| 2026-05-07 15:33 | 41.48991 | 28.42850 | 11162 ft | 356 kts | 303° |
| 2026-05-07 15:34 | 41.50357 | 28.40030 | 11847 ft | 367 kts | 303° |
| 2026-05-07 15:34 | 41.51735 | 28.37182 | 12695 ft | 373 kts | 303° |
| 2026-05-07 15:34 | 41.52673 | 28.35241 | 13317 ft | 377 kts | 302° |
| 2026-05-07 15:34 | 41.54123 | 28.32242 | 14211 ft | 382 kts | 302° |
| 2026-05-07 15:35 | 41.55572 | 28.29241 | 15036 ft | 387 kts | 303° |
| 2026-05-07 15:35 | 41.57012 | 28.26254 | 15897 ft | 390 kts | 303° |
| 2026-05-07 15:35 | 41.58489 | 28.23190 | 16756 ft | 393 kts | 303° |
| 2026-05-07 15:35 | 41.59997 | 28.20057 | 17571 ft | 398 kts | 303° |
| 2026-05-07 15:36 | 41.61483 | 28.16966 | 18372 ft | 403 kts | 303° |
| 2026-05-07 15:36 | 41.63003 | 28.13804 | 19070 ft | 407 kts | 303° |
| 2026-05-07 15:36 | 41.64534 | 28.10613 | 19809 ft | 409 kts | 303° |
| 2026-05-07 15:36 | 41.66075 | 28.07397 | 20561 ft | 411 kts | 303° |
| 2026-05-07 15:37 | 41.67621 | 28.04171 | 21273 ft | 414 kts | 303° |
| 2026-05-07 15:37 | 41.69186 | 28.00899 | 21984 ft | 417 kts | 303° |
| 2026-05-07 15:37 | 41.70591 | 27.97958 | 22625 ft | 420 kts | 303° |
| 2026-05-07 15:37 | 41.72174 | 27.94642 | 23325 ft | 424 kts | 303° |
| 2026-05-07 15:38 | 41.73750 | 27.91336 | 23927 ft | 427 kts | 303° |
| 2026-05-07 15:38 | 41.75330 | 27.88021 | 24103 ft | 429 kts | 303° |
| 2026-05-07 15:38 | 41.76941 | 27.84634 | 24097 ft | 431 kts | 303° |
| 2026-05-07 15:38 | 41.78548 | 27.81251 | 24097 ft | 430 kts | 303° |
| 2026-05-07 15:39 | 41.80152 | 27.77873 | 24091 ft | 430 kts | 303° |
| 2026-05-07 15:39 | 41.81742 | 27.74518 | 24090 ft | 430 kts | 303° |
| 2026-05-07 15:39 | 41.83353 | 27.71119 | 24080 ft | 430 kts | 303° |
| 2026-05-07 15:39 | 41.84947 | 27.67749 | 24087 ft | 430 kts | 303° |
| 2026-05-07 15:40 | 41.86553 | 27.64350 | 24080 ft | 430 kts | 303° |
| 2026-05-07 15:40 | 41.88154 | 27.60960 | 24083 ft | 430 kts | 303° |
| 2026-05-07 15:40 | 41.89757 | 27.57560 | 24084 ft | 431 kts | 303° |
| 2026-05-07 15:40 | 41.91359 | 27.54158 | 24084 ft | 431 kts | 303° |
| 2026-05-07 15:41 | 41.92961 | 27.50752 | 24080 ft | 432 kts | 303° |
| 2026-05-07 15:41 | 41.94565 | 27.47340 | 24080 ft | 432 kts | 302° |
| 2026-05-07 15:41 | 41.96143 | 27.43976 | 24081 ft | 433 kts | 302° |
| 2026-05-07 15:41 | 41.97772 | 27.40503 | 24079 ft | 433 kts | 302° |
| 2026-05-07 15:42 | 41.99373 | 27.37082 | 24080 ft | 433 kts | 302° |
| 2026-05-07 15:42 | 42.00980 | 27.33648 | 24085 ft | 434 kts | 302° |
| 2026-05-07 15:42 | 42.02591 | 27.30201 | 24483 ft | 437 kts | 302° |
| 2026-05-07 15:42 | 42.04196 | 27.26765 | 25087 ft | 439 kts | 302° |
| 2026-05-07 15:43 | 42.05827 | 27.23298 | 25734 ft | 440 kts | 304° |
| 2026-05-07 15:43 | 42.07635 | 27.19954 | 26301 ft | 443 kts | 309° |
| 2026-05-07 15:43 | 42.09673 | 27.16831 | 26820 ft | 447 kts | 311° |
| 2026-05-07 15:43 | 42.11680 | 27.13851 | 27301 ft | 450 kts | 312° |
| 2026-05-07 15:44 | 42.13797 | 27.10717 | 27840 ft | 453 kts | 312° |
| 2026-05-07 15:44 | 42.15924 | 27.07555 | 28382 ft | 456 kts | 311° |
| 2026-05-07 15:44 | 42.18056 | 27.04367 | 28895 ft | 459 kts | 311° |
| 2026-05-07 15:44 | 42.20198 | 27.01148 | 29366 ft | 462 kts | 311° |
| 2026-05-07 15:45 | 42.22341 | 26.97916 | 29822 ft | 465 kts | 311° |
| 2026-05-07 15:45 | 42.24498 | 26.94654 | 30359 ft | 465 kts | 311° |
| 2026-05-07 15:45 | 42.26645 | 26.91400 | 30960 ft | 461 kts | 311° |
| 2026-05-07 15:45 | 42.28772 | 26.88176 | 31596 ft | 457 kts | 310° |
| 2026-05-07 15:46 | 42.32908 | 26.81897 | 32686 ft | 452 kts | 310° |
| 2026-05-07 15:46 | 42.34996 | 26.78723 | 33209 ft | 451 kts | 310° |
| 2026-05-07 15:46 | 42.37069 | 26.75566 | 33698 ft | 449 kts | 310° |
| 2026-05-07 15:47 | 42.39113 | 26.72452 | 34182 ft | 447 kts | 310° |
| 2026-05-07 15:47 | 42.41176 | 26.69305 | 34569 ft | 447 kts | 310° |
| 2026-05-07 15:47 | 42.43237 | 26.66156 | 34902 ft | 447 kts | 309° |
| 2026-05-07 15:47 | 42.45301 | 26.63001 | 35226 ft | 447 kts | 309° |
| 2026-05-07 15:48 | 42.47362 | 26.59846 | 35572 ft | 447 kts | 309° |
| 2026-05-07 15:48 | 42.49419 | 26.56696 | 35917 ft | 446 kts | 309° |
| 2026-05-07 15:48 | 42.51460 | 26.53564 | 36011 ft | 451 kts | 309° |
| 2026-05-07 15:49 | 42.55282 | 26.46765 | 36050 ft | 448 kts | 300° |
| 2026-05-07 15:49 | 42.58244 | 26.39411 | 36053 ft | 442 kts | 296° |
| 2026-05-07 15:50 | 42.61115 | 26.32027 | 36057 ft | 441 kts | 296° |
| 2026-05-07 15:50 | 42.63974 | 26.24708 | 36058 ft | 442 kts | 297° |
| 2026-05-07 15:51 | 42.66864 | 26.17335 | 36052 ft | 443 kts | 297° |
| 2026-05-07 15:51 | 42.69761 | 26.09940 | 36057 ft | 444 kts | 297° |
| 2026-05-07 15:52 | 42.72666 | 26.02506 | 36041 ft | 445 kts | 297° |
| 2026-05-07 15:52 | 42.75542 | 25.95127 | 36049 ft | 446 kts | 296° |
| 2026-05-07 15:53 | 42.78444 | 25.87660 | 36037 ft | 447 kts | 296° |
| 2026-05-07 15:53 | 42.81357 | 25.80145 | 36048 ft | 448 kts | 296° |
| 2026-05-07 15:54 | 42.84263 | 25.72628 | 36027 ft | 449 kts | 296° |
| 2026-05-07 15:54 | 42.87169 | 25.65092 | 36037 ft | 449 kts | 296° |
| 2026-05-07 15:55 | 42.90072 | 25.57544 | 36026 ft | 449 kts | 296° |
| 2026-05-07 15:55 | 42.92947 | 25.50047 | 36041 ft | 449 kts | 296° |
| 2026-05-07 15:56 | 42.95841 | 25.42484 | 36030 ft | 449 kts | 296° |
| 2026-05-07 15:56 | 42.98714 | 25.34954 | 36034 ft | 449 kts | 296° |
| 2026-05-07 15:57 | 43.01595 | 25.27381 | 36056 ft | 449 kts | 295° |
| 2026-05-07 15:57 | 43.04432 | 25.19905 | 36041 ft | 450 kts | 295° |
| 2026-05-07 15:58 | 43.07314 | 25.12291 | 36052 ft | 451 kts | 295° |
| 2026-05-07 15:58 | 43.10183 | 25.04691 | 36054 ft | 451 kts | 295° |
| 2026-05-07 15:59 | 43.13014 | 24.97082 | 36055 ft | 451 kts | 292° |
| 2026-05-07 15:59 | 43.15553 | 24.89232 | 36056 ft | 451 kts | 291° |
| 2026-05-07 16:00 | 43.18026 | 24.81326 | 36057 ft | 452 kts | 291° |
| 2026-05-07 16:00 | 43.20508 | 24.73406 | 36058 ft | 453 kts | 291° |
| 2026-05-07 16:01 | 43.23002 | 24.65473 | 36066 ft | 453 kts | 291° |
| 2026-05-07 16:01 | 43.25501 | 24.57522 | 36058 ft | 454 kts | 291° |
| 2026-05-07 16:02 | 43.27996 | 24.49565 | 36058 ft | 454 kts | 290° |
| 2026-05-07 16:02 | 43.30469 | 24.41644 | 36062 ft | 454 kts | 290° |
| 2026-05-07 16:03 | 43.32947 | 24.33692 | 36057 ft | 453 kts | 290° |
| 2026-05-07 16:03 | 43.35418 | 24.25735 | 36064 ft | 452 kts | 290° |
| 2026-05-07 16:04 | 43.37879 | 24.17784 | 36056 ft | 451 kts | 290° |
| 2026-05-07 16:04 | 43.40316 | 24.09888 | 36058 ft | 451 kts | 290° |
| 2026-05-07 16:05 | 43.42755 | 24.01959 | 36053 ft | 451 kts | 290° |
| 2026-05-07 16:05 | 43.45195 | 23.94004 | 36057 ft | 451 kts | 290° |
| 2026-05-07 16:06 | 43.47627 | 23.86051 | 36055 ft | 451 kts | 290° |
| 2026-05-07 16:06 | 43.50024 | 23.78190 | 36062 ft | 451 kts | 290° |
| 2026-05-07 16:07 | 43.52448 | 23.70214 | 36059 ft | 451 kts | 290° |
| 2026-05-07 16:07 | 43.54863 | 23.62243 | 36054 ft | 451 kts | 290° |
| 2026-05-07 16:08 | 43.57275 | 23.54256 | 36059 ft | 451 kts | 290° |
| 2026-05-07 16:08 | 43.59677 | 23.46280 | 36051 ft | 451 kts | 290° |
| 2026-05-07 16:09 | 43.62074 | 23.38294 | 36053 ft | 450 kts | 290° |
| 2026-05-07 16:09 | 43.64450 | 23.30354 | 36062 ft | 450 kts | 290° |
| 2026-05-07 16:10 | 43.66830 | 23.22375 | 36049 ft | 451 kts | 290° |
| 2026-05-07 16:10 | 43.69217 | 23.14348 | 36054 ft | 451 kts | 290° |
| 2026-05-07 16:11 | 43.71560 | 23.06445 | 36050 ft | 451 kts | 290° |
| 2026-05-07 16:11 | 43.73922 | 22.98453 | 36059 ft | 451 kts | 290° |
| 2026-05-07 16:12 | 43.76276 | 22.90462 | 36055 ft | 452 kts | 290° |
| 2026-05-07 16:12 | 43.78642 | 22.82403 | 36055 ft | 452 kts | 289° |
| 2026-05-07 16:13 | 43.81007 | 22.74324 | 36058 ft | 452 kts | 289° |
| 2026-05-07 16:13 | 43.83369 | 22.66230 | 36056 ft | 453 kts | 289° |
| 2026-05-07 16:14 | 43.85714 | 22.58167 | 36058 ft | 454 kts | 289° |
| 2026-05-07 16:14 | 43.88070 | 22.50043 | 36058 ft | 455 kts | 289° |
| 2026-05-07 16:15 | 43.90552 | 22.42033 | 36057 ft | 457 kts | 295° |
| 2026-05-07 16:15 | 43.93988 | 22.34580 | 36060 ft | 462 kts | 305° |
| 2026-05-07 16:16 | 43.98152 | 22.27744 | 36049 ft | 464 kts | 308° |
| 2026-05-07 16:16 | 44.02389 | 22.20989 | 36065 ft | 464 kts | 307° |
| 2026-05-07 16:17 | 44.06623 | 22.14179 | 36055 ft | 465 kts | 307° |
| 2026-05-07 16:17 | 44.10823 | 22.07351 | 36058 ft | 465 kts | 307° |
| 2026-05-07 16:18 | 44.15015 | 22.00499 | 36068 ft | 464 kts | 307° |
| 2026-05-07 16:18 | 44.19172 | 21.93688 | 36042 ft | 463 kts | 307° |
| 2026-05-07 16:19 | 44.23342 | 21.86837 | 36040 ft | 463 kts | 307° |
| 2026-05-07 16:19 | 44.27505 | 21.79986 | 36044 ft | 463 kts | 307° |
| 2026-05-07 16:20 | 44.31663 | 21.73128 | 36050 ft | 462 kts | 307° |
| 2026-05-07 16:20 | 44.35808 | 21.66273 | 36053 ft | 461 kts | 307° |
| 2026-05-07 16:21 | 44.39944 | 21.59417 | 36041 ft | 460 kts | 307° |
| 2026-05-07 16:21 | 44.44036 | 21.52617 | 36035 ft | 460 kts | 307° |
| 2026-05-07 16:22 | 44.48146 | 21.45771 | 36036 ft | 459 kts | 307° |
| 2026-05-07 16:22 | 44.52258 | 21.38904 | 36037 ft | 459 kts | 307° |
| 2026-05-07 16:23 | 44.56348 | 21.32059 | 36034 ft | 458 kts | 307° |
| 2026-05-07 16:23 | 44.60435 | 21.25202 | 36026 ft | 458 kts | 307° |
| 2026-05-07 16:24 | 44.63857 | 21.19448 | 36025 ft | 458 kts | 307° |
| 2026-05-07 16:24 | 44.67909 | 21.12620 | 36024 ft | 457 kts | 307° |
| 2026-05-07 16:25 | 44.71973 | 21.05753 | 36029 ft | 457 kts | 307° |
| 2026-05-07 16:25 | 44.75990 | 20.98952 | 36018 ft | 457 kts | 306° |
| 2026-05-07 16:26 | 44.80036 | 20.92084 | 36020 ft | 456 kts | 306° |
| 2026-05-07 16:26 | 44.84078 | 20.85205 | 36017 ft | 455 kts | 306° |
| 2026-05-07 16:27 | 44.88115 | 20.78320 | 36017 ft | 455 kts | 306° |
| 2026-05-07 16:27 | 44.92080 | 20.71541 | 36017 ft | 455 kts | 306° |
| 2026-05-07 16:28 | 44.96085 | 20.64676 | 36014 ft | 455 kts | 306° |
| 2026-05-07 16:28 | 45.00099 | 20.57780 | 36003 ft | 455 kts | 306° |
| 2026-05-07 16:29 | 45.04116 | 20.50861 | 36002 ft | 455 kts | 306° |
| 2026-05-07 16:29 | 45.08130 | 20.43931 | 35999 ft | 455 kts | 306° |
| 2026-05-07 16:30 | 45.12150 | 20.36974 | 36005 ft | 456 kts | 306° |
| 2026-05-07 16:30 | 45.16136 | 20.30059 | 36002 ft | 456 kts | 306° |
| 2026-05-07 16:31 | 45.20148 | 20.23080 | 36002 ft | 456 kts | 306° |
| 2026-05-07 16:31 | 45.24153 | 20.16097 | 36001 ft | 456 kts | 306° |
| 2026-05-07 16:32 | 45.28162 | 20.09090 | 36003 ft | 456 kts | 305° |
| 2026-05-07 16:32 | 45.32138 | 20.02125 | 36004 ft | 456 kts | 305° |
| 2026-05-07 16:33 | 45.36132 | 19.95108 | 36013 ft | 456 kts | 305° |
| 2026-05-07 16:33 | 45.40121 | 19.88083 | 35998 ft | 456 kts | 305° |
| 2026-05-07 16:34 | 45.44110 | 19.81042 | 35997 ft | 456 kts | 305° |
| 2026-05-07 16:34 | 45.48095 | 19.73989 | 36002 ft | 456 kts | 305° |
| 2026-05-07 16:35 | 45.52072 | 19.66934 | 36005 ft | 457 kts | 305° |
| 2026-05-07 16:35 | 45.56054 | 19.59850 | 36004 ft | 457 kts | 304° |
| 2026-05-07 16:36 | 45.59995 | 19.52824 | 36006 ft | 457 kts | 304° |
| 2026-05-07 16:36 | 45.63963 | 19.45731 | 36010 ft | 457 kts | 304° |
| 2026-05-07 16:37 | 45.67925 | 19.38629 | 36008 ft | 457 kts | 304° |
| 2026-05-07 16:37 | 45.71860 | 19.31561 | 36007 ft | 457 kts | 304° |
| 2026-05-07 16:38 | 45.75814 | 19.24438 | 36008 ft | 457 kts | 304° |
| 2026-05-07 16:38 | 45.79765 | 19.17302 | 36005 ft | 456 kts | 304° |
| 2026-05-07 16:39 | 45.83708 | 19.10165 | 36011 ft | 456 kts | 304° |
| 2026-05-07 16:39 | 45.87643 | 19.03021 | 36003 ft | 456 kts | 304° |
| 2026-05-07 16:40 | 45.91552 | 18.95911 | 36008 ft | 456 kts | 304° |
| 2026-05-07 16:40 | 45.95133 | 18.88454 | 36006 ft | 452 kts | 296° |
| 2026-05-07 16:41 | 45.98308 | 18.80690 | 36004 ft | 452 kts | 296° |
| 2026-05-07 16:41 | 46.01480 | 18.72874 | 36009 ft | 452 kts | 296° |
| 2026-05-07 16:42 | 46.04640 | 18.65131 | 36010 ft | 452 kts | 296° |
| 2026-05-07 16:42 | 46.07834 | 18.57319 | 36011 ft | 452 kts | 296° |
| 2026-05-07 16:43 | 46.11025 | 18.49503 | 36017 ft | 453 kts | 296° |
| 2026-05-07 16:43 | 46.14214 | 18.41670 | 36017 ft | 453 kts | 296° |
| 2026-05-07 16:44 | 46.17383 | 18.33860 | 36017 ft | 453 kts | 296° |
| 2026-05-07 16:44 | 46.20563 | 18.26002 | 36011 ft | 454 kts | 296° |
| 2026-05-07 16:45 | 46.23736 | 18.18138 | 36004 ft | 454 kts | 296° |
| 2026-05-07 16:45 | 46.26914 | 18.10240 | 35997 ft | 454 kts | 295° |
| 2026-05-07 16:46 | 46.30057 | 18.02407 | 35999 ft | 453 kts | 295° |
| 2026-05-07 16:46 | 46.33216 | 17.94510 | 35992 ft | 453 kts | 295° |
| 2026-05-07 16:47 | 46.36365 | 17.86614 | 35992 ft | 453 kts | 295° |
| 2026-05-07 16:47 | 46.39508 | 17.78712 | 35988 ft | 453 kts | 295° |
| 2026-05-07 16:48 | 46.42633 | 17.70831 | 35987 ft | 453 kts | 295° |
| 2026-05-07 16:48 | 46.45770 | 17.62899 | 35983 ft | 453 kts | 295° |
| 2026-05-07 16:49 | 46.48903 | 17.54953 | 35981 ft | 453 kts | 295° |
| 2026-05-07 16:49 | 46.51915 | 17.47294 | 35974 ft | 454 kts | 295° |
| 2026-05-07 16:50 | 46.55035 | 17.39334 | 35970 ft | 454 kts | 295° |
| 2026-05-07 16:50 | 46.58156 | 17.31350 | 35972 ft | 454 kts | 295° |
| 2026-05-07 16:51 | 46.61271 | 17.23358 | 35974 ft | 454 kts | 295° |
| 2026-05-07 16:51 | 46.64376 | 17.15368 | 35960 ft | 455 kts | 295° |
| 2026-05-07 16:52 | 46.67466 | 17.07393 | 35963 ft | 455 kts | 295° |
| 2026-05-07 16:52 | 46.70575 | 16.99347 | 35967 ft | 455 kts | 295° |
| 2026-05-07 16:53 | 46.73680 | 16.91288 | 35968 ft | 456 kts | 295° |
| 2026-05-07 16:53 | 46.76764 | 16.83256 | 35964 ft | 456 kts | 295° |
| 2026-05-07 16:54 | 46.79827 | 16.75258 | 35960 ft | 456 kts | 295° |
| 2026-05-07 16:54 | 46.82915 | 16.67168 | 35948 ft | 456 kts | 294° |
| 2026-05-07 16:55 | 46.85989 | 16.59091 | 35952 ft | 456 kts | 294° |
| 2026-05-07 16:55 | 46.89063 | 16.50993 | 35941 ft | 455 kts | 294° |
| 2026-05-07 16:56 | 46.92098 | 16.42969 | 35943 ft | 455 kts | 294° |
| 2026-05-07 16:56 | 46.96682 | 16.30808 | 35941 ft | 454 kts | 294° |
| 2026-05-07 16:57 | 46.99719 | 16.22707 | 35942 ft | 453 kts | 293° |
| 2026-05-07 16:57 | 47.02479 | 16.14426 | 35937 ft | 451 kts | 291° |
| 2026-05-07 16:58 | 47.05128 | 16.06090 | 35934 ft | 451 kts | 290° |
| 2026-05-07 16:58 | 47.07778 | 15.97758 | 35941 ft | 450 kts | 291° |
| 2026-05-07 16:59 | 47.10431 | 15.89448 | 35938 ft | 451 kts | 290° |
| 2026-05-07 16:59 | 47.13075 | 15.81161 | 35948 ft | 450 kts | 290° |
| 2026-05-07 17:00 | 47.15724 | 15.72835 | 35959 ft | 450 kts | 290° |
| 2026-05-07 17:00 | 47.18352 | 15.64544 | 35964 ft | 450 kts | 290° |
| 2026-05-07 17:01 | 47.20993 | 15.56186 | 35964 ft | 450 kts | 290° |
| 2026-05-07 17:01 | 47.23614 | 15.47860 | 35974 ft | 450 kts | 290° |
| 2026-05-07 17:02 | 47.26243 | 15.39486 | 35978 ft | 450 kts | 290° |
| 2026-05-07 17:02 | 47.28864 | 15.31104 | 35987 ft | 450 kts | 289° |
| 2026-05-07 17:03 | 47.31480 | 15.22712 | 36006 ft | 451 kts | 289° |
| 2026-05-07 17:03 | 47.34099 | 15.14283 | 36012 ft | 452 kts | 289° |
| 2026-05-07 17:04 | 47.36659 | 15.06018 | 36011 ft | 451 kts | 289° |
| 2026-05-07 17:04 | 47.39490 | 14.97814 | 36018 ft | 454 kts | 296° |
| 2026-05-07 17:05 | 47.42638 | 14.90666 | 36038 ft | 453 kts | 297° |
| 2026-05-07 17:05 | 47.46088 | 14.82926 | 36018 ft | 452 kts | 297° |
| 2026-05-07 17:06 | 47.49525 | 14.75138 | 36024 ft | 452 kts | 297° |
| 2026-05-07 17:06 | 47.52916 | 14.67378 | 36026 ft | 452 kts | 297° |
| 2026-05-07 17:07 | 47.56340 | 14.59500 | 36041 ft | 455 kts | 297° |
| 2026-05-07 17:07 | 47.59752 | 14.51633 | 36040 ft | 457 kts | 297° |
| 2026-05-07 17:08 | 47.63115 | 14.43861 | 36038 ft | 458 kts | 297° |
| 2026-05-07 17:08 | 47.66510 | 14.35998 | 36029 ft | 459 kts | 296° |
| 2026-05-07 17:09 | 47.69933 | 14.28044 | 36017 ft | 459 kts | 296° |
| 2026-05-07 17:09 | 47.73353 | 14.20071 | 36036 ft | 457 kts | 296° |
| 2026-05-07 17:10 | 47.76179 | 14.13462 | 36018 ft | 458 kts | 296° |
| 2026-05-07 17:10 | 47.80151 | 14.04154 | 36017 ft | 457 kts | 296° |
| 2026-05-07 17:11 | 47.82976 | 13.97512 | 36029 ft | 456 kts | 296° |
| 2026-05-07 17:11 | 47.86355 | 13.89544 | 36033 ft | 457 kts | 296° |
| 2026-05-07 17:12 | 47.89728 | 13.81568 | 36027 ft | 457 kts | 296° |
| 2026-05-07 17:12 | 47.93044 | 13.73703 | 36027 ft | 458 kts | 296° |
| 2026-05-07 17:13 | 47.96429 | 13.65652 | 36021 ft | 458 kts | 296° |
| 2026-05-07 17:13 | 47.99733 | 13.57769 | 36027 ft | 458 kts | 296° |
| 2026-05-07 17:14 | 48.03095 | 13.49727 | 36029 ft | 459 kts | 296° |
| 2026-05-07 17:14 | 48.06480 | 13.41603 | 36031 ft | 460 kts | 296° |
| 2026-05-07 17:15 | 48.09743 | 13.33747 | 36011 ft | 460 kts | 296° |
| 2026-05-07 17:15 | 48.13126 | 13.25583 | 36019 ft | 461 kts | 296° |
| 2026-05-07 17:16 | 48.16471 | 13.17484 | 36028 ft | 461 kts | 296° |
| 2026-05-07 17:16 | 48.19846 | 13.09288 | 36031 ft | 462 kts | 296° |
| 2026-05-07 17:17 | 48.23085 | 13.01657 | 36028 ft | 465 kts | 300° |
| 2026-05-07 17:17 | 48.27235 | 12.94234 | 36034 ft | 471 kts | 306° |
| 2026-05-07 17:18 | 48.31523 | 12.87096 | 36027 ft | 471 kts | 306° |
| 2026-05-07 17:18 | 48.35627 | 12.80209 | 36025 ft | 471 kts | 306° |
| 2026-05-07 17:19 | 48.39894 | 12.72963 | 36027 ft | 470 kts | 306° |
| 2026-05-07 17:19 | 48.44135 | 12.65718 | 36034 ft | 470 kts | 306° |
| 2026-05-07 17:20 | 48.48435 | 12.58351 | 36024 ft | 470 kts | 306° |
| 2026-05-07 17:20 | 48.52701 | 12.51027 | 36034 ft | 470 kts | 306° |
| 2026-05-07 17:21 | 48.56966 | 12.43683 | 36045 ft | 469 kts | 306° |
| 2026-05-07 17:21 | 48.61161 | 12.36441 | 36030 ft | 469 kts | 306° |
| 2026-05-07 17:22 | 48.65208 | 12.29433 | 36038 ft | 469 kts | 306° |
| 2026-05-07 17:22 | 48.69470 | 12.22036 | 36043 ft | 469 kts | 306° |
| 2026-05-07 17:23 | 48.73436 | 12.14407 | 36030 ft | 461 kts | 295° |
| 2026-05-07 17:23 | 48.75791 | 12.05659 | 36041 ft | 451 kts | 279° |
| 2026-05-07 17:24 | 48.76802 | 11.96443 | 36039 ft | 448 kts | 275° |
| 2026-05-07 17:24 | 48.77692 | 11.87386 | 36037 ft | 450 kts | 275° |
| 2026-05-07 17:25 | 48.78652 | 11.78129 | 36029 ft | 451 kts | 275° |
| 2026-05-07 17:25 | 48.79500 | 11.70103 | 36020 ft | 451 kts | 275° |
| 2026-05-07 17:26 | 48.80435 | 11.61166 | 36022 ft | 451 kts | 275° |
| 2026-05-07 17:26 | 48.81400 | 11.51960 | 36020 ft | 447 kts | 275° |
| 2026-05-07 17:27 | 48.82360 | 11.42737 | 36031 ft | 448 kts | 275° |
| 2026-05-07 17:27 | 48.83303 | 11.33616 | 36029 ft | 450 kts | 275° |
| 2026-05-07 17:28 | 48.84703 | 11.24504 | 35883 ft | 459 kts | 290° |
| 2026-05-07 17:28 | 48.86230 | 11.20213 | 35493 ft | 465 kts | 299° |
| 2026-05-07 17:28 | 48.88213 | 11.16423 | 35040 ft | 467 kts | 310° |
| 2026-05-07 17:29 | 48.90599 | 11.13169 | 34621 ft | 465 kts | 314° |
| 2026-05-07 17:29 | 48.93081 | 11.09922 | 34167 ft | 459 kts | 314° |
| 2026-05-07 17:29 | 48.95447 | 11.06718 | 33591 ft | 456 kts | 313° |
| 2026-05-07 17:29 | 48.97778 | 11.03470 | 32995 ft | 453 kts | 312° |
| 2026-05-07 17:30 | 49.00061 | 11.00243 | 32388 ft | 448 kts | 312° |
| 2026-05-07 17:30 | 49.02304 | 10.97066 | 31782 ft | 440 kts | 313° |
| 2026-05-07 17:30 | 49.04525 | 10.93919 | 31226 ft | 438 kts | 313° |
| 2026-05-07 17:30 | 49.06581 | 10.91010 | 30689 ft | 437 kts | 313° |
| 2026-05-07 17:31 | 49.08803 | 10.87868 | 30201 ft | 434 kts | 313° |
| 2026-05-07 17:31 | 49.10961 | 10.84823 | 29573 ft | 432 kts | 313° |
| 2026-05-07 17:31 | 49.13162 | 10.81717 | 28933 ft | 431 kts | 314° |
| 2026-05-07 17:31 | 49.15253 | 10.78763 | 28331 ft | 429 kts | 314° |
| 2026-05-07 17:32 | 49.17395 | 10.75731 | 27739 ft | 427 kts | 314° |
| 2026-05-07 17:32 | 49.19505 | 10.72745 | 27087 ft | 408 kts | 314° |
| 2026-05-07 17:32 | 49.21330 | 10.70054 | 26503 ft | 389 kts | 311° |
| 2026-05-07 17:32 | 49.23163 | 10.67170 | 25915 ft | 382 kts | 310° |
| 2026-05-07 17:33 | 49.25000 | 10.64218 | 25394 ft | 389 kts | 310° |
| 2026-05-07 17:33 | 49.26845 | 10.61259 | 24864 ft | 392 kts | 311° |
| 2026-05-07 17:33 | 49.28725 | 10.58264 | 24357 ft | 392 kts | 311° |
| 2026-05-07 17:33 | 49.30528 | 10.55413 | 24157 ft | 383 kts | 311° |
| 2026-05-07 17:34 | 49.32367 | 10.52511 | 24059 ft | 377 kts | 311° |
| 2026-05-07 17:34 | 49.33962 | 10.49990 | 24066 ft | 376 kts | 311° |
| 2026-05-07 17:34 | 49.35714 | 10.47215 | 24067 ft | 377 kts | 311° |
| 2026-05-07 17:34 | 49.37406 | 10.44182 | 24061 ft | 376 kts | 304° |
| 2026-05-07 17:35 | 49.38925 | 10.40897 | 24057 ft | 376 kts | 302° |
| 2026-05-07 17:35 | 49.40338 | 10.37656 | 24056 ft | 377 kts | 301° |
| 2026-05-07 17:35 | 49.41698 | 10.34532 | 24064 ft | 378 kts | 302° |
| 2026-05-07 17:35 | 49.43159 | 10.31220 | 24054 ft | 378 kts | 302° |
| 2026-05-07 17:36 | 49.44639 | 10.27911 | 23914 ft | 377 kts | 302° |
| 2026-05-07 17:36 | 49.46128 | 10.24609 | 23593 ft | 376 kts | 303° |
| 2026-05-07 17:36 | 49.47497 | 10.21587 | 23222 ft | 376 kts | 303° |
| 2026-05-07 17:36 | 49.48970 | 10.18336 | 22841 ft | 374 kts | 303° |
| 2026-05-07 17:37 | 49.50456 | 10.15059 | 22509 ft | 372 kts | 303° |
| 2026-05-07 17:37 | 49.51931 | 10.11798 | 22183 ft | 370 kts | 303° |
| 2026-05-07 17:37 | 49.53381 | 10.08587 | 21856 ft | 368 kts | 303° |
| 2026-05-07 17:37 | 49.54815 | 10.05410 | 21452 ft | 367 kts | 303° |
| 2026-05-07 17:38 | 49.56274 | 10.02173 | 20999 ft | 367 kts | 303° |
| 2026-05-07 17:38 | 49.57712 | 9.98981 | 20539 ft | 366 kts | 303° |
| 2026-05-07 17:38 | 49.59159 | 9.95764 | 20090 ft | 364 kts | 303° |
| 2026-05-07 17:38 | 49.60474 | 9.92837 | 19684 ft | 361 kts | 303° |
| 2026-05-07 17:39 | 49.61898 | 9.89663 | 19263 ft | 359 kts | 303° |
| 2026-05-07 17:39 | 49.63306 | 9.86522 | 18828 ft | 357 kts | 303° |
| 2026-05-07 17:39 | 49.64701 | 9.83403 | 18405 ft | 355 kts | 303° |
| 2026-05-07 17:39 | 49.66068 | 9.80346 | 17943 ft | 352 kts | 303° |
| 2026-05-07 17:40 | 49.67419 | 9.77320 | 17468 ft | 350 kts | 303° |
| 2026-05-07 17:40 | 49.68773 | 9.74283 | 16998 ft | 348 kts | 303° |
| 2026-05-07 17:40 | 49.70250 | 9.71508 | 16506 ft | 345 kts | 317° |
| 2026-05-07 17:40 | 49.72303 | 9.69438 | 16046 ft | 346 kts | 335° |
| 2026-05-07 17:41 | 49.74567 | 9.68528 | 15603 ft | 346 kts | 354° |
| 2026-05-07 17:41 | 49.76938 | 9.68691 | 15159 ft | 340 kts | 3° |
| 2026-05-07 17:41 | 49.79261 | 9.68453 | 14685 ft | 335 kts | 342° |
| 2026-05-07 17:41 | 49.81345 | 9.66915 | 14271 ft | 332 kts | 322° |
| 2026-05-07 17:42 | 49.83111 | 9.64610 | 13866 ft | 331 kts | 316° |
| 2026-05-07 17:42 | 49.84764 | 9.62135 | 13395 ft | 331 kts | 314° |
| 2026-05-07 17:42 | 49.86377 | 9.59648 | 12925 ft | 329 kts | 314° |
| 2026-05-07 17:42 | 49.87991 | 9.57148 | 12470 ft | 328 kts | 314° |
| 2026-05-07 17:43 | 49.89598 | 9.54650 | 11981 ft | 326 kts | 314° |
| 2026-05-07 17:43 | 49.91118 | 9.52284 | 11525 ft | 314 kts | 314° |
| 2026-05-07 17:43 | 49.92623 | 9.49944 | 11086 ft | 311 kts | 314° |
| 2026-05-07 17:43 | 49.94092 | 9.47653 | 10683 ft | 314 kts | 312° |
| 2026-05-07 17:44 | 49.95357 | 9.44973 | 10226 ft | 311 kts | 298° |
| 2026-05-07 17:44 | 49.96337 | 9.41990 | 9802 ft | 309 kts | 295° |
| 2026-05-07 17:44 | 49.97242 | 9.38990 | 9331 ft | 307 kts | 294° |
| 2026-05-07 17:44 | 49.98125 | 9.36018 | 8856 ft | 307 kts | 294° |
| 2026-05-07 17:45 | 49.99014 | 9.33005 | 8397 ft | 305 kts | 294° |
| 2026-05-07 17:45 | 49.99869 | 9.30098 | 7904 ft | 288 kts | 294° |
| 2026-05-07 17:45 | 50.00672 | 9.27364 | 7448 ft | 280 kts | 294° |
| 2026-05-07 17:45 | 50.01483 | 9.24595 | 7044 ft | 293 kts | 294° |
| 2026-05-07 17:46 | 50.02335 | 9.21674 | 6622 ft | 297 kts | 294° |
| 2026-05-07 17:46 | 50.03171 | 9.18812 | 6168 ft | 281 kts | 294° |
| 2026-05-07 17:46 | 50.03954 | 9.16128 | 5750 ft | 263 kts | 294° |
| 2026-05-07 17:46 | 50.04667 | 9.13634 | 5207 ft | 245 kts | 294° |
| 2026-05-07 17:47 | 50.05321 | 9.11284 | 4835 ft | 234 kts | 294° |
| 2026-05-07 17:47 | 50.05950 | 9.09002 | 4528 ft | 225 kts | 294° |
| 2026-05-07 17:47 | 50.06554 | 9.06780 | 4145 ft | 224 kts | 294° |
| 2026-05-07 17:47 | 50.07142 | 9.04599 | 3939 ft | 214 kts | 294° |
| 2026-05-07 17:48 | 50.07665 | 9.02638 | 3933 ft | 198 kts | 294° |
| 2026-05-07 17:48 | 50.08190 | 9.00660 | 3990 ft | 202 kts | 294° |
| 2026-05-07 17:48 | 50.08724 | 8.98648 | 3952 ft | 198 kts | 294° |
| 2026-05-07 17:48 | 50.09191 | 8.96664 | 3949 ft | 193 kts | 286° |
| 2026-05-07 17:49 | 50.09489 | 8.94670 | 3949 ft | 185 kts | 284° |
| 2026-05-07 17:49 | 50.09751 | 8.92764 | 3959 ft | 175 kts | 283° |
| 2026-05-07 17:49 | 50.10004 | 8.90922 | 3971 ft | 174 kts | 284° |
| 2026-05-07 17:49 | 50.10253 | 8.89081 | 3992 ft | 173 kts | 283° |
| 2026-05-07 17:50 | 50.10424 | 8.87224 | 3966 ft | 176 kts | 267° |
| 2026-05-07 17:50 | 50.10153 | 8.85362 | 3959 ft | 179 kts | 258° |
| 2026-05-07 17:50 | 50.09842 | 8.83487 | 3705 ft | 181 kts | 256° |
| 2026-05-07 17:50 | 50.09455 | 8.81623 | 3485 ft | 179 kts | 253° |
| 2026-05-07 17:51 | 50.09038 | 8.79806 | 3248 ft | 178 kts | 252° |
| 2026-05-07 17:51 | 50.08612 | 8.77998 | 3002 ft | 178 kts | 251° |
| 2026-05-07 17:51 | 50.08182 | 8.76190 | 2786 ft | 178 kts | 251° |
| 2026-05-07 17:51 | 50.07774 | 8.74447 | 2519 ft | 167 kts | 255° |
| 2026-05-07 17:52 | 50.07539 | 8.72719 | 2210 ft | 154 kts | 263° |
| 2026-05-07 17:52 | 50.07382 | 8.71104 | 1976 ft | 149 kts | 262° |
| 2026-05-07 17:52 | 50.07091 | 8.69565 | 1784 ft | 149 kts | 251° |
| 2026-05-07 17:52 | 50.06717 | 8.68039 | 1679 ft | 153 kts | 251° |
| 2026-05-07 17:53 | 50.06345 | 8.66496 | 1549 ft | 152 kts | 251° |
| 2026-05-07 17:53 | 50.05989 | 8.64921 | 1306 ft | 155 kts | 251° |
| 2026-05-07 17:53 | 50.05635 | 8.63395 | 1059 ft | 148 kts | 250° |
| 2026-05-07 17:53 | 50.05282 | 8.61917 | 838 ft | 145 kts | 249° |
| 2026-05-07 17:54 | 50.04923 | 8.60440 | 638 ft | 147 kts | 248° |
| 2026-05-07 17:54 | 50.04574 | 8.58955 | 450 ft | 147 kts | 248° |
| 2026-05-07 17:54 | 50.04221 | 8.57490 | 373 ft | 135 kts | 248° |
| 2026-05-07 17:54 | 50.03942 | 8.56313 | 358 ft | 94 kts | 249° |
| 2026-05-07 17:55 | 50.03783 | 8.55634 | 362 ft | 22 kts | 262° |
| 2026-05-07 17:55 | 50.03837 | 8.55519 | 357 ft | 13 kts | 337° |
| 2026-05-07 17:55 | 50.03860 | 8.55505 | 360 ft | 0 kts | 338° |
| 2026-05-07 17:57 | 50.03882 | 8.55491 | 363 ft | 8 kts | 338° |
| 2026-05-07 17:58 | 50.03908 | 8.55463 | 361 ft | 6 kts | 304° |
| 2026-05-07 17:58 | 50.03905 | 8.55346 | 361 ft | 16 kts | 252° |
| 2026-05-07 17:58 | 50.03854 | 8.55139 | 360 ft | 24 kts | 250° |
| 2026-05-07 17:58 | 50.03795 | 8.54885 | 360 ft | 26 kts | 250° |
| 2026-05-07 17:59 | 50.03729 | 8.54612 | 357 ft | 28 kts | 248° |
| 2026-05-07 17:59 | 50.03710 | 8.54406 | 358 ft | 10 kts | 312° |
| 2026-05-07 17:59 | 50.03769 | 8.54353 | 357 ft | 9 kts | 340° |
| 2026-05-07 17:59 | 50.03831 | 8.54319 | 358 ft | 10 kts | 340° |
| 2026-05-07 18:00 | 50.03906 | 8.54275 | 359 ft | 11 kts | 338° |
| 2026-05-07 18:00 | 50.03945 | 8.54303 | 360 ft | 6 kts | 59° |
| 2026-05-07 18:00 | 50.03960 | 8.54361 | 359 ft | 0 kts | 71° |
| 2026-05-07 18:00 | 50.03963 | 8.54375 | 361 ft | 3 kts | 70° |
| 2026-05-07 18:01 | 50.03964 | 8.54381 | 360 ft | 0 kts | 70° |